Time;durP1;ratioP1;P1;durP2;ratioP2;P2;SDS_P1;SDS_P2;PMS_P1;PMS_P2;Temp;Humidity;BMP_temperature;BMP_pressure;BME280_temperature;BME280_humidity;BME280_pressure;Samples;Min_cycle;Max_cycle;Signal;HPM_P1;HPM_P2
2021/04/11 00:00:39;;;;;;;2.05;1.10;;;20.30;45.80;;;;;;7711161;23;20467;-63
2021/04/11 00:03:40;;;;;;;1.55;1.10;;;20.30;45.80;;;;;;7709923;23;20005;-63
2021/04/11 00:06:40;;;;;;;1.17;0.90;;;20.20;45.80;;;;;;7710948;23;20007;-63
2021/04/11 00:09:41;;;;;;;1.58;1.20;;;20.30;45.80;;;;;;7709715;23;20050;-63
2021/04/11 00:12:42;;;;;;;1.23;1.10;;;20.30;45.80;;;;;;7710275;23;20012;-63
2021/04/11 00:15:43;;;;;;;1.90;1.08;;;20.30;45.80;;;;;;7710313;23;20016;-63
2021/04/11 00:18:43;;;;;;;1.73;1.00;;;20.30;45.80;;;;;;7711554;23;20001;-63
2021/04/11 00:21:44;;;;;;;2.28;1.25;;;20.30;45.80;;;;;;7711528;23;20012;-63
2021/04/11 00:24:44;;;;;;;1.85;1.05;;;20.30;45.90;;;;;;7710669;23;20822;-63
2021/04/11 00:27:46;;;;;;;2.55;1.25;;;20.30;45.90;;;;;;7710285;23;20080;-63
2021/04/11 00:30:47;;;;;;;1.55;1.02;;;20.30;45.90;;;;;;7710998;23;20011;-63
2021/04/11 00:33:47;;;;;;;1.90;1.38;;;20.20;45.80;;;;;;7710205;23;20012;-63
2021/04/11 00:36:49;;;;;;;1.80;1.20;;;20.30;45.80;;;;;;7710524;23;20009;-63
2021/04/11 00:39:49;;;;;;;1.40;1.00;;;20.20;45.80;;;;;;7709782;23;20007;-63
2021/04/11 00:43:08;;;;;;;1.30;1.10;;;20.20;45.80;;;;;;7710262;23;20005;-63
2021/04/11 00:46:41;;;;;;;1.52;0.98;;;20.20;45.70;;;;;;7709776;23;20004;-63
2021/04/11 00:49:46;;;;;;;1.90;1.10;;;20.20;45.80;;;;;;7710496;23;20027;-63
2021/04/11 00:52:46;;;;;;;1.08;0.98;;;20.20;45.80;;;;;;7710870;23;20660;-63
2021/04/11 00:55:48;;;;;;;1.42;1.00;;;20.20;45.80;;;;;;7709930;23;20023;-63
2021/04/11 00:58:49;;;;;;;1.40;1.08;;;20.20;45.80;;;;;;7710266;23;20008;-64
2021/04/11 01:01:50;;;;;;;1.48;1.17;;;20.20;45.80;;;;;;7711239;23;20005;-63
2021/04/11 01:04:50;;;;;;;1.67;1.00;;;20.20;45.80;;;;;;7710187;23;20005;-63
2021/04/11 01:07:52;;;;;;;1.65;1.30;;;20.20;45.80;;;;;;7710176;23;20066;-63
2021/04/11 01:11:07;;;;;;;1.67;1.25;;;20.20;45.80;;;;;;7710340;23;20424;-63
2021/04/11 01:14:09;;;;;;;;;;;20.20;45.80;;;;;;7710652;23;20084;-63
2021/04/11 01:17:15;;;;;;;1.65;1.33;;;20.20;45.80;;;;;;7710378;23;19900;-63
2021/04/11 01:20:19;;;;;;;1.95;1.15;;;20.20;45.80;;;;;;7710680;23;20103;-63
2021/04/11 01:23:45;;;;;;;1.40;1.20;;;20.20;45.80;;;;;;7712137;23;20004;-63
2021/04/11 01:26:48;;;;;;;1.00;0.90;;;20.20;45.90;;;;;;7711889;23;20004;-63
2021/04/11 01:29:50;;;;;;;1.00;0.90;;;20.20;45.80;;;;;;7712105;23;20377;-63
2021/04/11 01:32:51;;;;;;;1.83;1.27;;;20.20;45.80;;;;;;7712232;23;20004;-63
2021/04/11 01:35:54;;;;;;;1.33;1.13;;;20.20;45.80;;;;;;7711935;23;20054;-63
2021/04/11 01:38:57;;;;;;;1.67;1.13;;;20.20;45.80;;;;;;7712666;23;20001;-63
2021/04/11 01:42:00;;;;;;;1.02;0.80;;;20.20;45.80;;;;;;7713817;23;20058;-63
2021/04/11 01:45:00;;;;;;;1.48;1.08;;;20.20;45.90;;;;;;7713487;23;20019;-63
2021/04/11 01:48:01;;;;;;;2.00;1.20;;;20.20;45.90;;;;;;7712574;23;20425;-63
2021/04/11 01:51:04;;;;;;;1.50;1.25;;;20.20;45.90;;;;;;7711704;23;20125;-63
2021/04/11 01:54:10;;;;;;;2.08;1.45;;;20.20;46.30;;;;;;7712775;23;20012;-63
2021/04/11 01:57:20;;;;;;;1.88;1.15;;;20.20;45.80;;;;;;7711529;23;20076;-63
2021/04/11 02:00:23;;;;;;;1.52;1.20;;;20.20;45.90;;;;;;7711859;23;20011;-63
2021/04/11 02:03:24;;;;;;;1.23;1.10;;;20.20;45.90;;;;;;7712198;23;20028;-63
2021/04/11 02:06:25;;;;;;;2.95;1.27;;;20.20;45.80;;;;;;7712930;23;20120;-63
2021/04/11 02:09:33;;;;;;;1.98;1.13;;;20.20;45.90;;;;;;7713179;23;20005;-63
2021/04/11 02:12:35;;;;;;;1.17;1.00;;;20.20;45.90;;;;;;7713275;23;20009;-63
2021/04/11 02:15:41;;;;;;;1.50;1.13;;;20.20;45.90;;;;;;7712022;23;20013;-63
2021/04/11 02:18:42;;;;;;;1.55;1.10;;;20.20;45.90;;;;;;7712953;23;20498;-64
2021/04/11 02:21:47;;;;;;;1.95;1.40;;;20.20;46.00;;;;;;7711342;23;20013;-63
2021/04/11 02:24:49;;;;;;;2.03;1.23;;;20.20;45.90;;;;;;7711653;23;20000;-63
2021/04/11 02:27:50;;;;;;;2.05;1.33;;;20.20;45.90;;;;;;7712071;23;20005;-63
2021/04/11 02:30:54;;;;;;;1.80;1.15;;;20.20;46.00;;;;;;7712848;23;20155;-63
2021/04/11 02:33:56;;;;;;;1.37;1.27;;;20.20;45.90;;;;;;7712289;23;20012;-63
2021/04/11 02:37:02;;;;;;;1.70;1.30;;;20.20;45.90;;;;;;7712546;23;20029;-63
2021/04/11 02:40:06;;;;;;;1.27;1.10;;;20.20;45.90;;;;;;7712159;23;20384;-63
2021/04/11 02:43:09;;;;;;;2.53;1.30;;;20.20;45.90;;;;;;7712282;23;20725;-63
2021/04/11 02:46:12;;;;;;;1.63;1.30;;;20.20;45.90;;;;;;7712627;23;20080;-62
2021/04/11 02:49:15;;;;;;;1.67;1.30;;;20.20;45.90;;;;;;7712066;23;20005;-64
2021/04/11 02:52:33;;;;;;;1.60;1.20;;;20.20;45.90;;;;;;7710791;23;20372;-63
2021/04/11 02:55:38;;;;;;;2.70;1.20;;;20.20;45.90;;;;;;7711898;23;20012;-63
2021/04/11 02:58:39;;;;;;;1.40;1.27;;;20.20;46.00;;;;;;7712610;23;20004;-63
2021/04/11 03:01:45;;;;;;;2.22;1.10;;;20.20;45.90;;;;;;7712477;23;20011;-63
2021/04/11 03:04:46;;;;;;;1.75;1.25;;;20.20;46.00;;;;;;7711480;23;20251;-63
2021/04/11 03:07:53;;;;;;;2.85;1.30;;;20.20;45.90;;;;;;7711482;23;20077;-63
2021/04/11 03:11:25;;;;;;;1.60;1.23;;;20.20;46.00;;;;;;7711118;23;20015;-63
2021/04/11 03:14:30;;;;;;;1.95;1.30;;;20.20;46.00;;;;;;7711778;23;20092;-63
2021/04/11 03:17:32;;;;;;;1.63;1.10;;;20.20;46.00;;;;;;7710516;23;20036;-63
2021/04/11 03:20:38;;;;;;;2.05;1.33;;;20.20;45.90;;;;;;7710664;23;19996;-64
2021/04/11 03:23:39;;;;;;;1.60;1.13;;;20.20;45.90;;;;;;7710475;23;20137;-63
2021/04/11 03:26:57;;;;;;;4.63;1.42;;;20.20;45.90;;;;;;7711066;23;20016;-64
2021/04/11 03:30:04;;;;;;;2.03;1.30;;;20.20;45.90;;;;;;7710900;23;20452;-63
2021/04/11 03:33:10;;;;;;;1.52;1.20;;;20.20;46.00;;;;;;7710536;23;20001;-63
2021/04/11 03:36:14;;;;;;;2.13;1.30;;;20.20;45.90;;;;;;7709083;23;20086;-63
2021/04/11 03:39:15;;;;;;;1.95;1.35;;;20.20;45.90;;;;;;7708723;23;20028;-63
2021/04/11 03:42:19;;;;;;;1.45;1.08;;;20.20;45.90;;;;;;7710194;23;20011;-63
2021/04/11 03:45:20;;;;;;;1.67;1.00;;;20.20;45.90;;;;;;7712370;23;20313;-62
2021/04/11 03:48:25;;;;;;;2.08;1.30;;;20.20;46.00;;;;;;7711936;23;20004;-63
2021/04/11 03:51:27;;;;;;;1.88;1.23;;;20.20;45.90;;;;;;7711980;23;20040;-63
2021/04/11 03:54:38;;;;;;;1.80;1.33;;;20.20;46.00;;;;;;7711860;23;20478;-63
2021/04/11 03:57:49;;;;;;;1.75;1.27;;;20.20;46.10;;;;;;7712044;23;20008;-63
2021/04/11 04:00:56;;;;;;;2.00;1.25;;;20.20;46.00;;;;;;7711943;23;20013;-63
2021/04/11 04:04:03;;;;;;;1.58;1.30;;;20.20;45.90;;;;;;7710323;23;20071;-63
2021/04/11 04:07:14;;;;;;;1.90;1.45;;;20.20;46.00;;;;;;7711854;23;20059;-63
2021/04/11 04:10:19;;;;;;;1.95;1.35;;;20.20;46.00;;;;;;7712061;23;20001;-63
2021/04/11 04:13:42;;;;;;;1.63;1.42;;;20.20;45.90;;;;;;7712391;23;20000;-63
2021/04/11 04:17:23;;;;;;;1.65;1.45;;;20.20;45.90;;;;;;7711899;23;20012;-63
2021/04/11 04:20:39;;;;;;;2.05;1.40;;;20.20;45.90;;;;;;7711730;23;20009;-63
2021/04/11 04:24:15;;;;;;;4.72;1.60;;;20.20;45.90;;;;;;7711736;23;20496;-63
2021/04/11 04:27:28;;;;;;;;;;;20.20;46.00;;;;;;7712207;23;20080;-63
2021/04/11 04:30:50;;;;;;;2.33;1.67;;;20.20;46.00;;;;;;7711699;23;19970;-63
2021/04/11 04:34:17;;;;;;;1.88;1.30;;;20.20;46.00;;;;;;7711781;23;20008;-63
2021/04/11 04:37:22;;;;;;;2.13;1.75;;;20.20;45.90;;;;;;7711490;23;20016;-63
2021/04/11 04:40:49;;;;;;;2.80;1.55;;;20.20;45.90;;;;;;7711576;23;20005;-63
2021/04/11 04:44:19;;;;;;;1.90;1.60;;;20.20;45.90;;;;;;7711546;23;20421;-63
2021/04/11 04:47:52;;;;;;;2.83;1.40;;;20.20;45.80;;;;;;7711584;23;20005;-63
2021/04/11 04:51:04;;;;;;;2.33;1.48;;;20.20;45.90;;;;;;7711458;23;20351;-63
2021/04/11 04:54:32;;;;;;;2.10;1.33;;;20.20;45.80;;;;;;7711441;23;20016;-63
2021/04/11 04:57:54;;;;;;;3.00;2.00;;;20.20;45.90;;;;;;7714040;23;20011;-64
2021/04/11 05:01:00;;;;;;;1.98;1.48;;;20.20;45.90;;;;;;7714011;23;20372;-63
2021/04/11 05:04:06;;;;;;;2.47;1.58;;;20.20;45.90;;;;;;7714098;23;20557;-63
2021/04/11 05:07:15;;;;;;;2.35;1.67;;;20.20;45.80;;;;;;7713945;23;20011;-63
2021/04/11 05:10:26;;;;;;;1.80;1.40;;;20.20;45.80;;;;;;7713989;23;20004;-63
2021/04/11 05:13:32;;;;;;;2.30;1.58;;;20.20;45.80;;;;;;7714255;23;20009;-63
2021/04/11 05:16:56;;;;;;;3.70;1.70;;;20.20;45.80;;;;;;7713639;23;20008;-63
2021/04/11 05:20:20;;;;;;;2.95;1.77;;;20.20;45.80;;;;;;7713748;23;20032;-63
2021/04/11 05:23:27;;;;;;;2.00;1.67;;;20.20;45.90;;;;;;7712935;23;20009;-63
2021/04/11 05:26:44;;;;;;;2.45;1.70;;;20.20;45.90;;;;;;7713667;23;20001;-63
2021/04/11 05:30:13;;;;;;;2.42;1.70;;;20.20;45.80;;;;;;7713363;23;20043;-63
2021/04/11 05:33:17;;;;;;;2.78;1.90;;;20.20;45.90;;;;;;7713973;23;20028;-64
2021/04/11 05:36:50;;;;;;;2.47;1.73;;;20.20;45.80;;;;;;7713498;23;20059;-63
2021/04/11 05:40:01;;;;;;;2.97;2.10;;;20.20;45.80;;;;;;7713504;23;20131;-63
2021/04/11 05:43:23;;;;;;;2.92;1.73;;;20.20;45.80;;;;;;7713551;23;20345;-63
2021/04/11 05:46:39;;;;;;;3.22;2.13;;;20.20;45.80;;;;;;7713516;23;20032;-64
2021/04/11 05:50:00;;;;;;;2.80;1.77;;;20.20;45.90;;;;;;7712964;23;20008;-63
2021/04/11 05:53:19;;;;;;;4.13;2.20;;;20.20;45.80;;;;;;7713606;23;20012;-63
2021/04/11 05:56:24;;;;;;;2.30;1.80;;;20.20;45.80;;;;;;7711743;23;20013;-63
2021/04/11 05:59:39;;;;;;;2.90;1.98;;;20.20;45.80;;;;;;7713472;23;20445;-63
2021/04/11 06:02:43;;;;;;;2.30;1.70;;;20.20;45.80;;;;;;7713089;23;20005;-64
2021/04/11 06:06:11;;;;;;;2.40;1.95;;;20.20;45.90;;;;;;7713016;23;20071;-63
2021/04/11 06:09:38;;;;;;;2.63;1.65;;;20.20;45.90;;;;;;7712278;23;20062;-63
2021/04/11 06:12:54;;;;;;;2.83;1.70;;;20.20;45.90;;;;;;7713003;23;20380;-64
2021/04/11 06:15:58;;;;;;;;;;;20.20;45.90;;;;;;7713594;23;20008;-63
2021/04/11 06:19:00;;;;;;;3.53;1.90;;;20.20;45.80;;;;;;7713094;23;19911;-63
2021/04/11 06:22:13;;;;;;;2.42;1.80;;;20.20;45.80;;;;;;7712813;23;20012;-63
2021/04/11 06:25:33;;;;;;;3.00;1.85;;;20.20;45.90;;;;;;7713103;23;20009;-63
2021/04/11 06:28:51;;;;;;;3.03;1.90;;;20.20;45.90;;;;;;7713257;23;20083;-63
2021/04/11 06:32:01;;;;;;;5.28;2.08;;;20.20;45.80;;;;;;7712823;23;20079;-63
2021/04/11 06:35:08;;;;;;;2.20;1.70;;;20.20;45.80;;;;;;7713086;23;20337;-63
2021/04/11 06:38:11;;;;;;;3.45;2.05;;;20.20;45.80;;;;;;7712931;23;20000;-63
2021/04/11 06:41:33;;;;;;;2.88;2.00;;;20.20;45.80;;;;;;7712795;23;20008;-64
2021/04/11 06:45:01;;;;;;;2.75;1.80;;;20.20;45.90;;;;;;7713004;23;20004;-63
2021/04/11 06:48:21;;;;;;;2.80;1.80;;;20.20;45.90;;;;;;7712680;23;20087;-63
2021/04/11 06:52:00;;;;;;;3.60;2.10;;;20.20;45.80;;;;;;7712460;23;20092;-64
2021/04/11 06:55:01;;;;;;;3.65;2.10;;;20.20;45.80;;;;;;7713008;23;20019;-63
2021/04/11 06:58:43;;;;;;;2.92;2.17;;;20.20;45.90;;;;;;7712428;23;20005;-63
2021/04/11 07:02:03;;;;;;;3.92;2.47;;;20.20;45.90;;;;;;7711917;23;20459;-63
2021/04/11 07:05:35;;;;;;;3.90;2.25;;;20.20;45.80;;;;;;7712543;23;20324;-63
2021/04/11 07:09:02;;;;;;;3.13;2.22;;;20.20;45.80;;;;;;7712200;23;20031;-63
2021/04/11 07:12:46;;;;;;;3.22;2.10;;;20.20;45.80;;;;;;7712556;23;20063;-63
2021/04/11 07:16:01;;;;;;;3.17;1.92;;;20.20;45.90;;;;;;7712440;23;20063;-63
2021/04/11 07:19:24;;;;;;;4.73;2.37;;;20.20;45.90;;;;;;7712228;23;20332;-63
2021/04/11 07:23:02;;;;;;;3.67;2.15;;;20.20;45.90;;;;;;7712353;23;20008;-63
2021/04/11 07:26:24;;;;;;;3.08;2.10;;;20.20;45.80;;;;;;7712140;23;20127;-63
2021/04/11 07:29:55;;;;;;;4.32;2.40;;;20.20;45.90;;;;;;7712176;23;20047;-63
2021/04/11 07:33:16;;;;;;;3.20;2.10;;;20.20;45.90;;;;;;7711882;23;20537;-63
2021/04/11 07:36:38;;;;;;;2.92;2.00;;;20.20;45.80;;;;;;7711946;23;20344;-63
2021/04/11 07:39:45;;;;;;;3.10;2.10;;;20.20;45.90;;;;;;7712169;23;20000;-63
2021/04/11 07:43:12;;;;;;;3.22;2.05;;;20.20;45.90;;;;;;7711993;23;20451;-63
2021/04/11 07:46:21;;;;;;;3.97;2.30;;;20.20;45.80;;;;;;7712043;23;20036;-64
2021/04/11 07:49:42;;;;;;;2.97;2.20;;;20.20;45.80;;;;;;7711742;23;20013;-63
2021/04/11 07:52:49;;;;;;;2.40;1.83;;;20.20;45.90;;;;;;7711839;23;20000;-63
2021/04/11 07:56:13;;;;;;;3.92;2.30;;;20.20;45.80;;;;;;7712059;23;20016;-63
2021/04/11 07:59:20;;;;;;;3.75;2.47;;;20.20;45.80;;;;;;7711834;23;20008;-63
2021/04/11 08:02:52;;;;;;;2.92;2.00;;;20.20;45.90;;;;;;7711916;23;20450;-63
2021/04/11 08:06:25;;;;;;;2.83;2.10;;;20.20;45.90;;;;;;7712300;23;20074;-63
2021/04/11 08:09:58;;;;;;;3.58;2.03;;;20.20;45.90;;;;;;7711595;23;20007;-63
2021/04/11 08:13:17;;;;;;;3.25;2.00;;;20.20;45.90;;;;;;7711606;23;20079;-63
2021/04/11 08:16:26;;;;;;;3.85;2.30;;;20.20;45.90;;;;;;7711764;23;20027;-64
2021/04/11 08:19:52;;;;;;;4.07;2.03;;;20.20;45.90;;;;;;7711830;23;20011;-63
2021/04/11 08:23:22;;;;;;;4.68;2.33;;;20.20;45.90;;;;;;7712150;23;20399;-63
2021/04/11 08:26:54;;;;;;;2.45;1.70;;;20.20;45.80;;;;;;7711632;23;20082;-64
2021/04/11 08:30:34;;;;;;;3.25;2.10;;;20.20;46.10;;;;;;7661267;23;20016;-63
2021/04/11 08:34:01;;;;;;;2.13;1.67;;;20.20;45.90;;;;;;7714334;23;20005;-63
2021/04/11 08:37:23;;;;;;;3.60;2.25;;;20.20;45.90;;;;;;7709736;23;20020;-63
2021/04/11 08:40:47;;;;;;;3.22;2.10;;;20.20;45.90;;;;;;7714133;23;20004;-63
2021/04/11 08:44:13;;;;;;;5.05;1.98;;;20.20;45.90;;;;;;7714654;23;20005;-63
2021/04/11 08:47:47;;;;;;;5.38;2.58;;;20.20;45.90;;;;;;7714184;23;20083;-63
2021/04/11 08:50:50;;;;;;;6.15;2.30;;;20.20;46.60;;;;;;7635331;23;20029;-63
2021/04/11 08:54:08;;;;;;;3.40;2.25;;;20.20;45.90;;;;;;7714316;23;20051;-63
2021/04/11 08:57:36;;;;;;;2.95;2.05;;;20.20;45.90;;;;;;7714344;23;20083;-63
2021/04/11 09:00:50;;;;;;;3.63;2.00;;;20.20;45.90;;;;;;7714108;23;20028;-63
2021/04/11 09:04:08;;;;;;;3.90;2.22;;;20.20;45.90;;;;;;7713799;23;20429;-63
2021/04/11 09:07:22;;;;;;;4.38;2.50;;;20.20;45.90;;;;;;7714176;23;20008;-63
2021/04/11 09:10:48;;;;;;;3.10;2.00;;;20.20;45.90;;;;;;7713804;23;20007;-63
2021/04/11 09:14:07;;;;;;;;;;;20.20;45.90;;;;;;7713858;23;20004;-63
2021/04/11 09:17:35;;;;;;;2.75;1.90;;;20.20;45.90;;;;;;7713850;23;20297;-63
2021/04/11 09:20:42;;;;;;;3.33;1.90;;;20.20;45.90;;;;;;7713666;23;20083;-63
2021/04/11 09:24:09;;;;;;;4.35;2.47;;;20.20;45.90;;;;;;7714024;23;20039;-63
2021/04/11 09:27:38;;;;;;;2.88;1.75;;;20.30;46.10;;;;;;7713513;23;20371;-63
2021/04/11 09:31:05;;;;;;;4.55;1.95;;;20.20;45.90;;;;;;7713470;23;20004;-63
2021/04/11 09:34:12;;;;;;;5.63;2.78;;;20.20;45.90;;;;;;7713760;23;20012;-63
2021/04/11 09:37:45;;;;;;;2.90;1.90;;;20.30;46.00;;;;;;7713517;23;20015;-63
2021/04/11 09:41:23;;;;;;;4.78;2.50;;;20.20;45.90;;;;;;7713253;23;20008;-63
2021/04/11 09:44:38;;;;;;;3.20;2.30;;;20.20;45.90;;;;;;7713531;23;20001;-66
2021/04/11 09:47:54;;;;;;;3.05;2.10;;;20.20;45.90;;;;;;7703921;23;20004;-63
2021/04/11 09:51:22;;;;;;;5.38;2.50;;;20.20;46.00;;;;;;7709246;23;20392;-62
2021/04/11 09:54:42;;;;;;;7.05;4.75;;;20.20;46.00;;;;;;7711068;23;20016;-63
2021/04/11 09:58:04;;;;;;;9.40;4.60;;;20.20;45.80;;;;;;7710746;23;20440;-64
2021/04/11 10:01:28;;;;;;;9.52;5.45;;;20.30;46.10;;;;;;7710980;23;20013;-65
2021/04/11 10:05:00;;;;;;;13.43;7.65;;;20.30;45.90;;;;;;7709435;23;20075;-65
2021/04/11 10:08:03;;;;;;;16.58;8.35;;;20.30;45.40;;;;;;7710804;23;20082;-65
2021/04/11 10:11:13;;;;;;;16.90;8.48;;;20.20;45.10;;;;;;7711277;23;20009;-64
2021/04/11 10:14:39;;;;;;;18.35;9.10;;;20.20;45.00;;;;;;7710428;23;20072;-65
2021/04/11 10:17:57;;;;;;;19.67;9.65;;;20.20;45.00;;;;;;7710757;23;20039;-65
2021/04/11 10:21:02;;;;;;;17.85;8.70;;;20.20;45.00;;;;;;7708352;23;20020;-64
2021/04/11 10:24:31;;;;;;;20.90;9.07;;;20.20;44.90;;;;;;7708702;23;20000;-64
2021/04/11 10:27:39;;;;;;;16.92;8.23;;;20.20;45.50;;;;;;7709920;23;20000;-64
2021/04/11 10:30:42;;;;;;;23.38;8.60;;;20.30;45.50;;;;;;7710386;23;20005;-65
2021/04/11 10:33:53;;;;;;;16.27;8.15;;;20.30;45.50;;;;;;7710727;23;20151;-65
2021/04/11 10:37:06;;;;;;;14.82;8.23;;;20.30;45.30;;;;;;7710497;23;20088;-65
2021/04/11 10:40:23;;;;;;;17.30;9.07;;;20.20;45.20;;;;;;7709955;23;20000;-64
2021/04/11 10:43:39;;;;;;;18.73;8.55;;;20.20;45.20;;;;;;7710568;23;20328;-65
2021/04/11 10:47:14;;;;;;;19.50;10.00;;;20.20;45.30;;;;;;7711344;23;20023;-65
2021/04/11 10:50:33;;;;;;;18.52;8.18;;;20.20;45.20;;;;;;7709396;23;20021;-65
2021/04/11 10:53:55;;;;;;;22.58;8.38;;;20.20;45.70;;;;;;7708182;23;20004;-65
2021/04/11 10:57:20;;;;;;;15.57;8.70;;;20.30;45.80;;;;;;7710081;23;20101;-63
2021/04/11 11:00:57;;;;;;;25.20;7.65;;;20.30;45.30;;;;;;7710356;23;20011;-64
2021/04/11 11:03:57;;;;;;;21.52;8.95;;;20.30;45.10;;;;;;7681507;23;20008;-65
2021/04/11 11:07:18;;;;;;;16.42;7.40;;;20.30;45.10;;;;;;7710649;23;20000;-65
2021/04/11 11:10:46;;;;;;;14.75;7.40;;;20.30;45.00;;;;;;7710525;23;20000;-65
2021/04/11 11:14:05;;;;;;;20.50;7.63;;;20.30;44.80;;;;;;7709144;23;20009;-65
2021/04/11 11:17:12;;;;;;;18.17;7.95;;;20.30;44.70;;;;;;7709886;23;20008;-65
2021/04/11 11:20:49;;;;;;;13.50;7.60;;;20.30;44.70;;;;;;7710642;23;20675;-65
2021/04/11 11:24:04;;;;;;;17.38;8.25;;;20.30;44.60;;;;;;7710923;23;20011;-65
2021/04/11 11:27:50;;;;;;;21.25;7.53;;;20.30;44.60;;;;;;7708862;23;20372;-64
2021/04/11 11:31:29;;;;;;;18.38;6.80;;;20.40;45.10;;;;;;7709385;23;20000;-65
2021/04/11 11:34:47;;;;;;;11.88;6.10;;;20.40;45.00;;;;;;7709180;23;20440;-65
2021/04/11 11:38:06;;;;;;;16.98;7.07;;;20.40;44.80;;;;;;7709418;23;20012;-65
2021/04/11 11:41:12;;;;;;;10.32;6.60;;;20.40;44.70;;;;;;7707996;23;20001;-64
2021/04/11 11:44:29;;;;;;;15.30;6.68;;;20.40;44.80;;;;;;7709171;23;20155;-64
2021/04/11 11:47:38;;;;;;;12.60;5.97;;;20.40;44.80;;;;;;7709125;23;20460;-64
2021/04/11 11:51:01;;;;;;;14.35;6.20;;;20.40;44.90;;;;;;7708714;23;20036;-64
2021/04/11 11:54:23;;;;;;;11.32;6.40;;;20.40;44.80;;;;;;7708399;23;20034;-64
2021/04/11 11:57:45;;;;;;;14.82;6.50;;;20.40;44.90;;;;;;7708751;23;20096;-65
2021/04/11 12:01:07;;;;;;;17.10;6.15;;;20.40;44.90;;;;;;7708847;23;20086;-65
2021/04/11 12:04:26;;;;;;;12.20;6.20;;;20.40;45.10;;;;;;7708118;23;20012;-65
2021/04/11 12:07:36;;;;;;;10.93;5.45;;;20.40;45.10;;;;;;7708991;23;20070;-63
2021/04/11 12:11:16;;;;;;;10.85;5.72;;;20.40;44.90;;;;;;7708928;23;19996;-62
2021/04/11 12:14:24;;;;;;;17.95;5.32;;;20.40;45.40;;;;;;7692567;23;20004;-66
2021/04/11 12:17:51;;;;;;;13.52;5.15;;;20.50;45.60;;;;;;7705886;23;20098;-65
2021/04/11 12:21:00;;;;;;;14.52;6.10;;;20.50;45.40;;;;;;7708299;23;20009;-65
2021/04/11 12:24:28;;;;;;;16.83;5.72;;;20.50;45.10;;;;;;7708940;23;20008;-65
2021/04/11 12:27:35;;;;;;;10.90;5.40;;;20.50;45.10;;;;;;7707385;23;20462;-65
2021/04/11 12:30:38;;;;;;;13.60;5.13;;;20.50;45.10;;;;;;7707628;23;20005;-65
2021/04/11 12:33:51;;;;;;;10.88;5.20;;;20.50;45.10;;;;;;7708817;23;20440;-65
2021/04/11 12:37:09;;;;;;;10.52;5.78;;;20.50;45.00;;;;;;7707766;23;20444;-64
2021/04/11 12:40:31;;;;;;;11.32;5.30;;;20.50;45.10;;;;;;7708648;23;20477;-65
2021/04/11 12:43:51;;;;;;;10.00;4.65;;;20.50;45.10;;;;;;7707984;23;20001;-65
2021/04/11 12:47:08;;;;;;;12.95;4.45;;;20.50;45.10;;;;;;7707709;23;20008;-65
2021/04/11 12:50:23;;;;;;;9.50;4.47;;;20.50;44.90;;;;;;7708750;23;20436;-64
2021/04/11 12:53:42;;;;;;;8.27;4.75;;;20.50;44.90;;;;;;7708531;23;20007;-65
2021/04/11 12:56:53;;;;;;;8.43;4.43;;;20.50;45.00;;;;;;7709257;23;20012;-65
2021/04/11 13:00:12;;;;;;;11.63;4.00;;;20.50;44.80;;;;;;7709279;23;20108;-64
2021/04/11 13:03:39;;;;;;;9.90;3.97;;;20.50;45.00;;;;;;7709193;23;20416;-65
2021/04/11 13:06:53;;;;;;;7.82;4.07;;;20.50;44.90;;;;;;7666631;23;20091;-65
2021/04/11 13:10:09;;;;;;;6.15;3.78;;;20.50;45.30;;;;;;7708628;23;20035;-64
2021/04/11 13:13:26;;;;;;;7.30;4.00;;;20.50;45.30;;;;;;7709390;23;20092;-65
2021/04/11 13:16:35;;;;;;;5.70;3.47;;;20.50;45.40;;;;;;7709253;23;20507;-62
2021/04/11 13:19:44;;;;;;;7.57;3.80;;;20.50;45.40;;;;;;7710305;23;20087;-63
2021/04/11 13:22:53;;;;;;;4.85;3.40;;;20.40;45.40;;;;;;7710866;23;20320;-63
2021/04/11 13:26:06;;;;;;;8.00;3.72;;;20.40;45.40;;;;;;7707494;23;20005;-62
2021/04/11 13:29:22;;;;;;;5.05;3.08;;;20.40;45.40;;;;;;7709705;23;20001;-63
2021/04/11 13:32:44;;;;;;;5.65;3.30;;;20.40;45.50;;;;;;7709069;23;20340;-63
2021/04/11 13:35:51;;;;;;;8.10;3.58;;;20.40;45.50;;;;;;7710074;23;20092;-63
2021/04/11 13:39:01;;;;;;;8.60;3.65;;;20.40;45.50;;;;;;7709361;23;20005;-63
2021/04/11 13:42:44;;;;;;;9.55;3.05;;;20.40;45.50;;;;;;7710476;23;20012;-63
2021/04/11 13:45:50;;;;;;;7.35;3.17;;;20.40;45.60;;;;;;7697305;23;20526;-63
2021/04/11 13:49:26;;;;;;;7.00;3.15;;;20.40;45.50;;;;;;7710080;23;20055;-63
2021/04/11 13:52:44;;;;;;;7.57;3.35;;;20.40;45.60;;;;;;7628865;23;20036;-63
2021/04/11 13:55:55;;;;;;;7.45;3.20;;;20.40;45.50;;;;;;7710038;23;20072;-64
2021/04/11 13:59:15;;;;;;;4.65;2.60;;;20.40;45.50;;;;;;7710092;23;20004;-63
2021/04/11 14:02:36;;;;;;;6.50;2.78;;;20.40;45.60;;;;;;7709966;23;20050;-63
2021/04/11 14:05:39;;;;;;;5.82;2.80;;;20.40;45.60;;;;;;7710976;23;20039;-63
2021/04/11 14:08:53;;;;;;;5.03;3.03;;;20.40;45.50;;;;;;7708541;23;20000;-63
2021/04/11 14:12:00;;;;;;;9.63;3.42;;;20.40;45.60;;;;;;7710598;23;20457;-63
2021/04/11 14:15:02;;;;;;;5.95;2.70;;;20.40;45.60;;;;;;7707690;23;20025;-63
2021/04/11 14:18:22;;;;;;;6.80;2.55;;;20.40;46.30;;;;;;7712108;23;20000;-63
2021/04/11 14:21:37;;;;;;;5.60;2.80;;;20.40;45.60;;;;;;7711037;23;20008;-64
2021/04/11 14:24:40;;;;;;;11.02;2.83;;;20.40;45.60;;;;;;7710252;23;20594;-63
2021/04/11 14:28:08;;;;;;;9.82;2.75;;;20.40;45.40;;;;;;7709284;23;20005;-63
2021/04/11 14:31:19;;;;;;;5.65;2.90;;;20.40;45.50;;;;;;7709535;23;20016;-63
2021/04/11 14:34:32;;;;;;;6.22;2.50;;;20.40;45.50;;;;;;7708956;23;20016;-62
2021/04/11 14:38:05;;;;;;;5.60;2.08;;;20.50;46.00;;;;;;7709569;23;20016;-64
2021/04/11 14:41:17;;;;;;;23.50;2.97;;;20.50;46.20;;;;;;7709962;23;20009;-62
2021/04/11 14:44:44;;;;;;;6.32;2.40;;;20.50;46.50;;;;;;7709134;23;20666;-63
2021/04/11 14:47:50;;;;;;;8.45;2.67;;;20.60;46.50;;;;;;7708929;23;20001;-63
2021/04/11 14:50:54;;;;;;;12.80;2.28;;;20.60;46.30;;;;;;7709332;23;20027;-63
2021/04/11 14:54:21;;;;;;;3.42;2.17;;;20.60;46.40;;;;;;7708042;23;20366;-63
2021/04/11 14:57:37;;;;;;;9.60;2.53;;;20.60;46.10;;;;;;7709464;23;20040;-63
2021/04/11 15:00:53;;;;;;;11.20;3.05;;;20.60;46.10;;;;;;7708870;23;20020;-63
2021/04/11 15:04:22;;;;;;;2.65;1.90;;;20.60;46.20;;;;;;7709331;23;20005;-63
2021/04/11 15:07:36;;;;;;;6.75;2.40;;;20.60;46.00;;;;;;7709545;23;20031;-63
2021/04/11 15:10:57;;;;;;;3.13;2.13;;;20.60;46.10;;;;;;7708927;23;20419;-64
2021/04/11 15:14:25;;;;;;;4.13;2.20;;;20.60;46.10;;;;;;7708681;23;20009;-63
2021/04/11 15:17:30;;;;;;;4.68;2.50;;;20.60;46.10;;;;;;7709049;23;20305;-64
2021/04/11 15:20:36;;;;;;;4.75;2.25;;;20.60;46.10;;;;;;7709819;23;20066;-63
2021/04/11 15:24:00;;;;;;;3.13;2.22;;;20.60;46.20;;;;;;7708137;23;20008;-64
2021/04/11 15:27:07;;;;;;;8.80;2.00;;;20.60;46.10;;;;;;7708757;23;20008;-63
2021/04/11 15:30:31;;;;;;;5.15;2.58;;;20.60;46.20;;;;;;7709383;23;20459;-64
2021/04/11 15:33:37;;;;;;;3.50;2.00;;;20.60;46.10;;;;;;7709216;23;20005;-64
2021/04/11 15:37:16;;;;;;;4.40;1.80;;;20.60;46.10;;;;;;7708418;23;20042;-63
2021/04/11 15:40:30;;;;;;;4.20;2.00;;;20.60;46.20;;;;;;7708733;23;20007;-63
2021/04/11 15:43:49;;;;;;;3.65;1.90;;;20.60;46.30;;;;;;7709613;23;20012;-63
2021/04/11 15:46:59;;;;;;;7.55;2.17;;;20.60;46.20;;;;;;7708101;23;20063;-63
2021/04/11 15:50:11;;;;;;;2.90;1.75;;;20.60;46.20;;;;;;7707946;23;20016;-64
2021/04/11 15:53:18;;;;;;;2.53;1.85;;;20.60;46.30;;;;;;7709583;23;20011;-64
2021/04/11 15:56:40;;;;;;;3.08;1.80;;;20.60;46.20;;;;;;7709692;23;20020;-64
2021/04/11 15:59:56;;;;;;;3.58;1.67;;;20.60;46.20;;;;;;7707713;23;20059;-63
2021/04/11 16:03:11;;;;;;;3.60;2.08;;;20.60;46.20;;;;;;7709330;23;20092;-63
2021/04/11 16:06:37;;;;;;;3.85;1.70;;;20.60;46.20;;;;;;7708436;23;20054;-63
2021/04/11 16:09:38;;;;;;;;;;;20.60;46.20;;;;;;7710005;23;20005;-64
2021/04/11 16:12:58;;;;;;;8.00;1.90;;;20.60;46.40;;;;;;7708101;23;19900;-63
2021/04/11 16:16:27;;;;;;;10.30;2.00;;;20.70;46.50;;;;;;7708225;23;20043;-63
2021/04/11 16:19:45;;;;;;;4.88;1.83;;;20.60;46.30;;;;;;7708578;23;20080;-63
2021/04/11 16:23:30;;;;;;;9.00;1.80;;;20.60;46.40;;;;;;7708936;23;20032;-63
2021/04/11 16:26:58;;;;;;;4.82;1.63;;;20.60;46.40;;;;;;7661981;23;20447;-63
2021/04/11 16:30:25;;;;;;;6.20;2.10;;;20.70;46.50;;;;;;7708511;23;20012;-64
2021/04/11 16:34:00;;;;;;;2.53;1.50;;;20.70;46.50;;;;;;7709375;23;20066;-64
2021/04/11 16:37:32;;;;;;;7.13;2.15;;;20.60;46.50;;;;;;7680155;23;20012;-63
2021/04/11 16:40:53;;;;;;;3.50;1.50;;;20.60;46.50;;;;;;7710406;23;20016;-63
2021/04/11 16:44:17;;;;;;;3.42;1.33;;;20.70;46.50;;;;;;7710015;23;20364;-63
2021/04/11 16:47:25;;;;;;;11.63;1.92;;;20.60;46.40;;;;;;7710513;23;20047;-64
2021/04/11 16:50:31;;;;;;;9.30;1.95;;;20.70;46.50;;;;;;7709848;23;20017;-63
2021/04/11 16:53:44;;;;;;;2.60;1.40;;;20.60;46.50;;;;;;7712937;23;20005;-63